sensor_id;sensor_type;location;lat;lon;timestamp;pressure;altitude;pressure_sealevel;temperature;humidity
21658;BME280;10990;48.174;9.782;2023-12-22T00:00:11;93223.91;;;6.08;100.00
21658;BME280;10990;48.174;9.782;2023-12-22T00:02:40;93218.22;;;6.04;100.00
21658;BME280;10990;48.174;9.782;2023-12-22T00:05:07;93223.84;;;6.01;100.00
21658;BME280;10990;48.174;9.782;2023-12-22T00:07:32;93212.25;;;5.96;100.00
21658;BME280;10990;48.174;9.782;2023-12-22T00:09:58;93220.34;;;5.94;100.00
21658;BME280;10990;48.174;9.782;2023-12-22T00:12:24;93213.28;;;5.95;100.00
21658;BME280;10990;48.174;9.782;2023-12-22T00:14:50;93199.34;;;5.94;100.00
21658;BME280;10990;48.174;9.782;2023-12-22T00:17:16;93205.56;;;5.93;100.00
21658;BME280;10990;48.174;9.782;2023-12-22T00:19:44;93204.22;;;5.97;100.00
21658;BME280;10990;48.174;9.782;2023-12-22T00:22:10;93216.88;;;5.94;100.00
21658;BME280;10990;48.174;9.782;2023-12-22T00:24:35;93236.06;;;5.94;100.00
21658;BME280;10990;48.174;9.782;2023-12-22T00:27:01;93253.59;;;5.94;100.00
21658;BME280;10990;48.174;9.782;2023-12-22T00:29:27;93276.09;;;5.88;100.00
21658;BME280;10990;48.174;9.782;2023-12-22T00:31:53;93266.50;;;5.80;100.00
21658;BME280;10990;48.174;9.782;2023-12-22T00:34:19;93264.88;;;5.79;100.00
21658;BME280;10990;48.174;9.782;2023-12-22T00:36:47;93268.84;;;5.90;100.00
21658;BME280;10990;48.174;9.782;2023-12-22T00:39:13;93254.13;;;5.89;100.00
21658;BME280;10990;48.174;9.782;2023-12-22T00:41:39;93245.44;;;5.89;100.00
21658;BME280;10990;48.174;9.782;2023-12-22T00:44:05;93262.81;;;5.90;100.00
21658;BME280;10990;48.174;9.782;2023-12-22T00:46:31;93263.44;;;5.92;100.00
21658;BME280;10990;48.174;9.782;2023-12-22T00:48:56;93291.41;;;5.99;100.00
21658;BME280;10990;48.174;9.782;2023-12-22T00:51:22;93308.06;;;6.06;100.00
21658;BME280;10990;48.174;9.782;2023-12-22T00:53:50;93303.56;;;6.00;100.00
21658;BME280;10990;48.174;9.782;2023-12-22T00:56:16;93327.97;;;6.01;100.00
21658;BME280;10990;48.174;9.782;2023-12-22T00:58:42;93323.91;;;5.98;100.00
21658;BME280;10990;48.174;9.782;2023-12-22T01:01:08;93333.44;;;5.91;100.00
21658;BME280;10990;48.174;9.782;2023-12-22T01:03:34;93327.56;;;5.89;100.00
21658;BME280;10990;48.174;9.782;2023-12-22T01:05:59;93309.78;;;5.99;100.00
21658;BME280;10990;48.174;9.782;2023-12-22T01:08:25;93324.75;;;5.91;100.00
21658;BME280;10990;48.174;9.782;2023-12-22T01:10:53;93313.56;;;5.97;100.00
21658;BME280;10990;48.174;9.782;2023-12-22T01:13:19;93303.28;;;5.95;100.00
21658;BME280;10990;48.174;9.782;2023-12-22T01:15:45;93297.44;;;5.85;100.00
21658;BME280;10990;48.174;9.782;2023-12-22T01:18:11;93286.13;;;5.84;100.00
21658;BME280;10990;48.174;9.782;2023-12-22T01:20:37;93308.28;;;5.82;100.00
21658;BME280;10990;48.174;9.782;2023-12-22T01:23:03;93298.97;;;5.79;100.00
21658;BME280;10990;48.174;9.782;2023-12-22T01:25:29;93287.84;;;5.77;100.00
21658;BME280;10990;48.174;9.782;2023-12-22T01:27:57;93292.97;;;5.71;100.00
21658;BME280;10990;48.174;9.782;2023-12-22T01:30:23;93287.38;;;5.74;100.00
21658;BME280;10990;48.174;9.782;2023-12-22T01:32:48;93305.72;;;5.74;100.00
21658;BME280;10990;48.174;9.782;2023-12-22T01:35:14;93305.28;;;5.70;100.00
21658;BME280;10990;48.174;9.782;2023-12-22T01:37:40;93319.13;;;5.79;100.00
21658;BME280;10990;48.174;9.782;2023-12-22T01:40:07;93312.06;;;5.79;100.00
21658;BME280;10990;48.174;9.782;2023-12-22T01:42:33;93331.34;;;5.72;100.00
21658;BME280;10990;48.174;9.782;2023-12-22T01:45:02;93328.44;;;5.67;100.00
21658;BME280;10990;48.174;9.782;2023-12-22T01:47:28;93321.28;;;5.60;100.00
21658;BME280;10990;48.174;9.782;2023-12-22T01:49:54;93330.66;;;5.55;100.00
21658;BME280;10990;48.174;9.782;2023-12-22T01:52:20;93344.28;;;5.50;100.00
21658;BME280;10990;48.174;9.782;2023-12-22T01:54:46;93318.94;;;5.43;100.00
21658;BME280;10990;48.174;9.782;2023-12-22T01:57:13;93303.56;;;5.39;100.00
21658;BME280;10990;48.174;9.782;2023-12-22T01:59:41;93309.81;;;5.38;100.00
21658;BME280;10990;48.174;9.782;2023-12-22T02:02:09;93310.31;;;5.34;100.00
21658;BME280;10990;48.174;9.782;2023-12-22T02:04:35;93313.94;;;5.33;100.00
21658;BME280;10990;48.174;9.782;2023-12-22T02:07:02;93318.91;;;5.28;100.00
21658;BME280;10990;48.174;9.782;2023-12-22T02:09:28;93322.22;;;5.22;100.00
21658;BME280;10990;48.174;9.782;2023-12-22T02:11:54;93319.75;;;5.20;100.00
21658;BME280;10990;48.174;9.782;2023-12-22T02:14:21;93325.81;;;5.21;100.00
21658;BME280;10990;48.174;9.782;2023-12-22T02:16:52;93331.25;;;5.19;100.00
21658;BME280;10990;48.174;9.782;2023-12-22T02:19:40;93335.47;;;5.20;100.00
21658;BME280;10990;48.174;9.782;2023-12-22T02:22:07;93332.88;;;5.20;100.00
21658;BME280;10990;48.174;9.782;2023-12-22T02:24:35;93326.81;;;5.20;100.00
21658;BME280;10990;48.174;9.782;2023-12-22T02:27:04;93326.16;;;5.17;100.00
21658;BME280;10990;48.174;9.782;2023-12-22T02:29:32;93333.41;;;5.15;100.00
21658;BME280;10990;48.174;9.782;2023-12-22T02:32:05;93327.00;;;5.18;100.00
21658;BME280;10990;48.174;9.782;2023-12-22T02:34:35;93320.00;;;5.10;100.00
21658;BME280;10990;48.174;9.782;2023-12-22T02:37:04;93335.19;;;5.15;100.00
21658;BME280;10990;48.174;9.782;2023-12-22T02:39:31;93357.78;;;5.16;100.00
21658;BME280;10990;48.174;9.782;2023-12-22T02:42:00;93413.31;;;5.11;100.00
21658;BME280;10990;48.174;9.782;2023-12-22T02:44:27;93353.06;;;4.41;100.00
21658;BME280;10990;48.174;9.782;2023-12-22T02:46:53;93339.53;;;4.37;100.00
21658;BME280;10990;48.174;9.782;2023-12-22T02:49:19;93346.44;;;4.61;100.00
21658;BME280;10990;48.174;9.782;2023-12-22T02:51:45;93337.81;;;4.53;100.00
21658;BME280;10990;48.174;9.782;2023-12-22T02:54:11;93314.75;;;4.56;100.00
21658;BME280;10990;48.174;9.782;2023-12-22T02:56:37;93320.28;;;4.61;100.00
21658;BME280;10990;48.174;9.782;2023-12-22T02:59:06;93325.97;;;4.73;100.00
21658;BME280;10990;48.174;9.782;2023-12-22T03:01:32;93330.84;;;4.76;100.00
21658;BME280;10990;48.174;9.782;2023-12-22T03:03:58;93323.56;;;4.86;100.00
21658;BME280;10990;48.174;9.782;2023-12-22T03:06:24;93334.19;;;4.93;100.00
21658;BME280;10990;48.174;9.782;2023-12-22T03:08:50;93354.25;;;5.01;100.00
21658;BME280;10990;48.174;9.782;2023-12-22T03:11:16;93349.34;;;5.06;100.00
21658;BME280;10990;48.174;9.782;2023-12-22T03:13:42;93359.47;;;5.09;100.00
21658;BME280;10990;48.174;9.782;2023-12-22T03:16:11;93346.00;;;5.12;100.00
21658;BME280;10990;48.174;9.782;2023-12-22T03:18:38;93350.75;;;5.16;100.00
21658;BME280;10990;48.174;9.782;2023-12-22T03:21:04;93343.88;;;5.15;100.00
21658;BME280;10990;48.174;9.782;2023-12-22T03:23:30;93348.19;;;5.08;100.00
21658;BME280;10990;48.174;9.782;2023-12-22T03:25:56;93355.38;;;5.06;100.00
21658;BME280;10990;48.174;9.782;2023-12-22T03:28:22;93353.75;;;5.05;100.00
21658;BME280;10990;48.174;9.782;2023-12-22T03:30:48;93373.72;;;5.06;100.00
21658;BME280;10990;48.174;9.782;2023-12-22T03:33:16;93368.31;;;5.08;100.00
21658;BME280;10990;48.174;9.782;2023-12-22T03:35:42;93368.13;;;5.09;100.00
21658;BME280;10990;48.174;9.782;2023-12-22T03:38:08;93369.44;;;5.13;100.00
21658;BME280;10990;48.174;9.782;2023-12-22T03:40:34;93393.31;;;5.19;100.00
21658;BME280;10990;48.174;9.782;2023-12-22T03:43:00;93402.09;;;5.26;100.00
21658;BME280;10990;48.174;9.782;2023-12-22T03:45:26;93408.38;;;5.16;100.00
21658;BME280;10990;48.174;9.782;2023-12-22T03:47:52;93354.97;;;4.94;100.00
21658;BME280;10990;48.174;9.782;2023-12-22T03:50:21;93347.88;;;4.72;100.00
21658;BME280;10990;48.174;9.782;2023-12-22T03:52:47;93348.91;;;4.63;100.00
21658;BME280;10990;48.174;9.782;2023-12-22T03:55:16;93349.75;;;4.55;100.00
21658;BME280;10990;48.174;9.782;2023-12-22T03:57:41;93341.44;;;4.52;100.00
21658;BME280;10990;48.174;9.782;2023-12-22T04:00:09;93340.25;;;4.62;100.00
21658;BME280;10990;48.174;9.782;2023-12-22T04:02:34;93339.25;;;4.63;100.00
21658;BME280;10990;48.174;9.782;2023-12-22T04:05:00;93364.63;;;4.63;100.00
21658;BME280;10990;48.174;9.782;2023-12-22T04:07:29;93374.63;;;4.59;100.00
21658;BME280;10990;48.174;9.782;2023-12-22T04:09:54;93366.44;;;4.54;100.00
21658;BME280;10990;48.174;9.782;2023-12-22T04:12:20;93366.00;;;4.42;100.00
21658;BME280;10990;48.174;9.782;2023-12-22T04:14:46;93365.34;;;4.40;100.00
21658;BME280;10990;48.174;9.782;2023-12-22T04:17:12;93359.31;;;4.40;100.00
21658;BME280;10990;48.174;9.782;2023-12-22T04:19:38;93356.84;;;4.38;100.00
21658;BME280;10990;48.174;9.782;2023-12-22T04:22:03;93374.47;;;4.44;100.00
21658;BME280;10990;48.174;9.782;2023-12-22T04:24:32;93375.13;;;4.46;100.00
21658;BME280;10990;48.174;9.782;2023-12-22T04:26:58;93367.75;;;4.50;100.00
21658;BME280;10990;48.174;9.782;2023-12-22T04:29:23;93362.25;;;4.45;100.00
21658;BME280;10990;48.174;9.782;2023-12-22T04:31:49;93364.97;;;4.52;100.00
21658;BME280;10990;48.174;9.782;2023-12-22T04:34:15;93365.13;;;4.58;100.00
21658;BME280;10990;48.174;9.782;2023-12-22T04:36:41;93362.03;;;4.55;100.00
21658;BME280;10990;48.174;9.782;2023-12-22T04:39:07;93358.91;;;4.59;100.00
21658;BME280;10990;48.174;9.782;2023-12-22T04:41:36;93352.53;;;4.62;100.00
21658;BME280;10990;48.174;9.782;2023-12-22T04:44:02;93350.53;;;4.64;100.00
21658;BME280;10990;48.174;9.782;2023-12-22T04:46:28;93364.16;;;4.59;100.00
21658;BME280;10990;48.174;9.782;2023-12-22T04:48:53;93376.56;;;4.65;100.00
21658;BME280;10990;48.174;9.782;2023-12-22T04:51:19;93375.53;;;4.75;100.00
21658;BME280;10990;48.174;9.782;2023-12-22T04:53:45;93373.88;;;4.82;100.00
21658;BME280;10990;48.174;9.782;2023-12-22T04:56:11;93384.63;;;4.87;100.00
21658;BME280;10990;48.174;9.782;2023-12-22T04:58:39;93384.31;;;4.90;100.00
21658;BME280;10990;48.174;9.782;2023-12-22T05:01:05;93382.31;;;4.92;100.00
21658;BME280;10990;48.174;9.782;2023-12-22T05:03:31;93391.81;;;4.93;100.00
21658;BME280;10990;48.174;9.782;2023-12-22T05:05:57;93403.44;;;4.90;100.00
21658;BME280;10990;48.174;9.782;2023-12-22T05:08:23;93400.81;;;4.90;100.00
21658;BME280;10990;48.174;9.782;2023-12-22T05:10:49;93390.03;;;4.85;100.00
21658;BME280;10990;48.174;9.782;2023-12-22T05:13:14;93395.63;;;4.82;100.00
21658;BME280;10990;48.174;9.782;2023-12-22T05:15:43;93398.94;;;4.76;100.00
21658;BME280;10990;48.174;9.782;2023-12-22T05:18:09;93395.47;;;4.76;100.00
21658;BME280;10990;48.174;9.782;2023-12-22T05:20:34;93411.53;;;4.72;100.00
21658;BME280;10990;48.174;9.782;2023-12-22T05:23:00;93417.75;;;4.71;100.00
21658;BME280;10990;48.174;9.782;2023-12-22T05:25:26;93422.84;;;4.73;100.00
21658;BME280;10990;48.174;9.782;2023-12-22T05:27:52;93433.31;;;4.73;100.00
21658;BME280;10990;48.174;9.782;2023-12-22T05:30:18;93435.44;;;4.69;100.00
21658;BME280;10990;48.174;9.782;2023-12-22T05:32:46;93418.91;;;4.69;100.00
21658;BME280;10990;48.174;9.782;2023-12-22T05:35:12;93427.09;;;4.66;100.00
21658;BME280;10990;48.174;9.782;2023-12-22T05:37:38;93431.50;;;4.74;100.00
21658;BME280;10990;48.174;9.782;2023-12-22T05:40:05;93430.53;;;4.66;100.00
21658;BME280;10990;48.174;9.782;2023-12-22T05:42:31;93430.22;;;4.61;100.00
21658;BME280;10990;48.174;9.782;2023-12-22T05:44:57;93442.50;;;4.61;100.00
21658;BME280;10990;48.174;9.782;2023-12-22T05:47:23;93450.66;;;4.66;100.00
21658;BME280;10990;48.174;9.782;2023-12-22T05:49:51;93452.28;;;4.67;100.00
21658;BME280;10990;48.174;9.782;2023-12-22T05:52:17;93452.00;;;4.62;100.00
21658;BME280;10990;48.174;9.782;2023-12-22T05:54:42;93451.66;;;4.65;100.00
21658;BME280;10990;48.174;9.782;2023-12-22T05:57:08;93452.44;;;4.74;100.00
21658;BME280;10990;48.174;9.782;2023-12-22T05:59:34;93449.16;;;4.80;100.00
21658;BME280;10990;48.174;9.782;2023-12-22T06:02:00;93461.22;;;4.89;100.00
21658;BME280;10990;48.174;9.782;2023-12-22T06:04:27;93455.03;;;4.90;100.00
21658;BME280;10990;48.174;9.782;2023-12-22T06:06:56;93443.69;;;4.89;100.00
21658;BME280;10990;48.174;9.782;2023-12-22T06:09:22;93449.09;;;4.96;100.00
21658;BME280;10990;48.174;9.782;2023-12-22T06:11:48;93441.25;;;4.96;100.00
21658;BME280;10990;48.174;9.782;2023-12-22T06:14:16;93442.06;;;4.97;100.00
21658;BME280;10990;48.174;9.782;2023-12-22T06:16:41;93433.03;;;4.99;100.00
21658;BME280;10990;48.174;9.782;2023-12-22T06:19:07;93446.63;;;4.94;100.00
21658;BME280;10990;48.174;9.782;2023-12-22T06:21:33;93434.88;;;4.90;100.00
21658;BME280;10990;48.174;9.782;2023-12-22T06:24:01;93448.28;;;4.96;100.00
21658;BME280;10990;48.174;9.782;2023-12-22T06:26:29;93469.25;;;4.96;100.00
21658;BME280;10990;48.174;9.782;2023-12-22T06:28:57;93474.78;;;4.92;100.00
21658;BME280;10990;48.174;9.782;2023-12-22T06:31:25;93470.31;;;5.09;100.00
21658;BME280;10990;48.174;9.782;2023-12-22T06:33:54;93467.56;;;5.03;100.00
21658;BME280;10990;48.174;9.782;2023-12-22T06:36:22;93458.22;;;5.00;100.00
21658;BME280;10990;48.174;9.782;2023-12-22T06:38:49;93447.09;;;4.98;100.00
21658;BME280;10990;48.174;9.782;2023-12-22T06:41:23;93457.44;;;4.91;100.00
21658;BME280;10990;48.174;9.782;2023-12-22T06:43:51;93450.75;;;4.89;100.00
21658;BME280;10990;48.174;9.782;2023-12-22T06:46:18;93456.16;;;4.87;100.00
21658;BME280;10990;48.174;9.782;2023-12-22T06:48:44;93467.59;;;4.94;100.00
21658;BME280;10990;48.174;9.782;2023-12-22T06:51:17;93475.63;;;4.93;100.00
21658;BME280;10990;48.174;9.782;2023-12-22T06:53:42;93487.06;;;4.92;100.00
21658;BME280;10990;48.174;9.782;2023-12-22T06:56:15;93481.16;;;4.98;100.00
21658;BME280;10990;48.174;9.782;2023-12-22T06:58:43;93478.69;;;5.05;100.00
21658;BME280;10990;48.174;9.782;2023-12-22T07:01:09;93478.31;;;5.16;100.00
21658;BME280;10990;48.174;9.782;2023-12-22T07:03:37;93508.25;;;5.22;100.00
21658;BME280;10990;48.174;9.782;2023-12-22T07:06:04;93502.34;;;5.28;100.00
21658;BME280;10990;48.174;9.782;2023-12-22T07:08:29;93504.97;;;5.28;100.00
21658;BME280;10990;48.174;9.782;2023-12-22T07:10:55;93492.97;;;5.33;100.00
21658;BME280;10990;48.174;9.782;2023-12-22T07:13:21;93502.50;;;5.26;100.00
21658;BME280;10990;48.174;9.782;2023-12-22T07:15:50;93497.25;;;5.26;100.00
21658;BME280;10990;48.174;9.782;2023-12-22T07:18:16;93504.97;;;5.28;100.00
21658;BME280;10990;48.174;9.782;2023-12-22T07:20:41;93519.22;;;5.25;100.00
21658;BME280;10990;48.174;9.782;2023-12-22T07:23:09;93533.59;;;5.29;100.00
21658;BME280;10990;48.174;9.782;2023-12-22T07:25:36;93512.16;;;5.26;100.00
21658;BME280;10990;48.174;9.782;2023-12-22T07:28:03;93535.41;;;5.29;100.00
21658;BME280;10990;48.174;9.782;2023-12-22T07:30:28;93525.25;;;5.26;100.00
21658;BME280;10990;48.174;9.782;2023-12-22T07:32:57;93516.44;;;5.27;100.00
21658;BME280;10990;48.174;9.782;2023-12-22T07:35:23;93508.06;;;5.23;100.00
21658;BME280;10990;48.174;9.782;2023-12-22T07:37:48;93493.34;;;5.22;100.00
21658;BME280;10990;48.174;9.782;2023-12-22T07:40:14;93487.66;;;5.19;100.00
21658;BME280;10990;48.174;9.782;2023-12-22T07:42:40;93488.28;;;5.21;100.00
21658;BME280;10990;48.174;9.782;2023-12-22T07:45:08;93490.94;;;5.12;100.00
21658;BME280;10990;48.174;9.782;2023-12-22T07:47:38;93500.78;;;5.10;100.00
21658;BME280;10990;48.174;9.782;2023-12-22T07:50:08;93509.66;;;5.01;100.00
21658;BME280;10990;48.174;9.782;2023-12-22T07:52:34;93508.03;;;4.92;100.00
21658;BME280;10990;48.174;9.782;2023-12-22T07:55:00;93501.31;;;4.89;100.00
21658;BME280;10990;48.174;9.782;2023-12-22T07:57:25;93493.47;;;4.89;100.00
21658;BME280;10990;48.174;9.782;2023-12-22T07:59:51;93488.88;;;4.91;100.00
21658;BME280;10990;48.174;9.782;2023-12-22T08:02:17;93493.31;;;4.91;100.00
21658;BME280;10990;48.174;9.782;2023-12-22T08:04:43;93488.56;;;4.86;100.00
21658;BME280;10990;48.174;9.782;2023-12-22T08:07:11;93482.50;;;4.94;100.00
21658;BME280;10990;48.174;9.782;2023-12-22T08:09:37;93486.25;;;5.00;100.00
21658;BME280;10990;48.174;9.782;2023-12-22T08:12:04;93495.56;;;5.02;100.00
21658;BME280;10990;48.174;9.782;2023-12-22T08:14:31;93510.44;;;5.10;100.00
21658;BME280;10990;48.174;9.782;2023-12-22T08:16:59;93519.78;;;5.04;100.00
21658;BME280;10990;48.174;9.782;2023-12-22T08:19:27;93503.88;;;5.06;100.00
21658;BME280;10990;48.174;9.782;2023-12-22T08:21:54;93512.88;;;5.11;100.00
21658;BME280;10990;48.174;9.782;2023-12-22T08:24:22;93491.22;;;5.17;100.00
21658;BME280;10990;48.174;9.782;2023-12-22T08:26:48;93487.13;;;5.23;100.00
21658;BME280;10990;48.174;9.782;2023-12-22T08:29:15;93497.09;;;5.28;100.00
21658;BME280;10990;48.174;9.782;2023-12-22T08:31:43;93506.75;;;5.27;100.00
21658;BME280;10990;48.174;9.782;2023-12-22T08:34:11;93511.19;;;5.27;100.00
21658;BME280;10990;48.174;9.782;2023-12-22T08:36:38;93499.03;;;5.34;100.00
21658;BME280;10990;48.174;9.782;2023-12-22T08:39:04;93503.94;;;5.37;100.00
21658;BME280;10990;48.174;9.782;2023-12-22T08:41:32;93510.16;;;5.36;100.00
21658;BME280;10990;48.174;9.782;2023-12-22T08:43:59;93509.81;;;5.39;100.00
21658;BME280;10990;48.174;9.782;2023-12-22T08:46:27;93509.81;;;5.39;100.00
21658;BME280;10990;48.174;9.782;2023-12-22T08:48:54;93505.03;;;5.43;100.00
21658;BME280;10990;48.174;9.782;2023-12-22T08:51:19;93513.84;;;5.58;100.00
21658;BME280;10990;48.174;9.782;2023-12-22T08:53:45;93515.34;;;5.52;100.00
21658;BME280;10990;48.174;9.782;2023-12-22T08:56:11;93510.50;;;5.64;100.00
21658;BME280;10990;48.174;9.782;2023-12-22T08:58:40;93509.06;;;5.84;100.00
21658;BME280;10990;48.174;9.782;2023-12-22T09:01:05;93515.53;;;5.74;100.00
21658;BME280;10990;48.174;9.782;2023-12-22T09:03:33;93504.03;;;5.83;100.00
21658;BME280;10990;48.174;9.782;2023-12-22T09:05:59;93496.66;;;5.78;100.00
21658;BME280;10990;48.174;9.782;2023-12-22T09:08:25;93502.31;;;5.67;100.00
21658;BME280;10990;48.174;9.782;2023-12-22T09:10:51;93517.22;;;5.67;100.00
21658;BME280;10990;48.174;9.782;2023-12-22T09:13:17;93516.88;;;5.70;100.00
21658;BME280;10990;48.174;9.782;2023-12-22T09:15:46;93521.94;;;5.71;100.00
21658;BME280;10990;48.174;9.782;2023-12-22T09:18:14;93520.66;;;5.67;100.00
21658;BME280;10990;48.174;9.782;2023-12-22T09:20:41;93512.31;;;5.64;100.00
21658;BME280;10990;48.174;9.782;2023-12-22T09:23:09;93529.19;;;5.69;100.00
21658;BME280;10990;48.174;9.782;2023-12-22T09:25:35;93534.06;;;5.72;100.00
21658;BME280;10990;48.174;9.782;2023-12-22T09:28:01;93525.44;;;5.64;100.00
21658;BME280;10990;48.174;9.782;2023-12-22T09:30:28;93533.31;;;5.64;100.00
21658;BME280;10990;48.174;9.782;2023-12-22T09:32:58;93547.38;;;5.62;100.00
21658;BME280;10990;48.174;9.782;2023-12-22T09:35:26;93535.09;;;5.63;100.00
21658;BME280;10990;48.174;9.782;2023-12-22T09:37:54;93534.59;;;5.68;100.00
21658;BME280;10990;48.174;9.782;2023-12-22T09:40:20;93536.50;;;5.74;100.00
21658;BME280;10990;48.174;9.782;2023-12-22T09:42:46;93523.88;;;5.77;100.00
21658;BME280;10990;48.174;9.782;2023-12-22T09:45:17;93525.56;;;5.70;100.00
21658;BME280;10990;48.174;9.782;2023-12-22T09:47:44;93526.91;;;5.66;100.00
21658;BME280;10990;48.174;9.782;2023-12-22T09:50:12;93537.03;;;5.69;100.00
21658;BME280;10990;48.174;9.782;2023-12-22T09:52:38;93541.13;;;5.72;100.00
21658;BME280;10990;48.174;9.782;2023-12-22T09:55:07;93543.59;;;5.65;100.00
21658;BME280;10990;48.174;9.782;2023-12-22T09:57:33;93553.75;;;5.68;100.00
21658;BME280;10990;48.174;9.782;2023-12-22T10:00:00;93555.56;;;5.68;100.00
21658;BME280;10990;48.174;9.782;2023-12-22T10:02:30;93561.28;;;5.71;100.00
21658;BME280;10990;48.174;9.782;2023-12-22T10:04:57;93560.66;;;5.69;100.00
21658;BME280;10990;48.174;9.782;2023-12-22T10:07:25;93552.09;;;5.75;100.00
21658;BME280;10990;48.174;9.782;2023-12-22T10:09:52;93558.50;;;5.73;100.00
21658;BME280;10990;48.174;9.782;2023-12-22T10:12:19;93552.56;;;5.79;100.00
21658;BME280;10990;48.174;9.782;2023-12-22T10:14:47;93543.22;;;5.76;100.00
21658;BME280;10990;48.174;9.782;2023-12-22T10:17:13;93545.03;;;5.76;100.00
21658;BME280;10990;48.174;9.782;2023-12-22T10:19:40;93535.69;;;5.73;100.00
21658;BME280;10990;48.174;9.782;2023-12-22T10:22:06;93544.03;;;5.77;100.00
21658;BME280;10990;48.174;9.782;2023-12-22T10:24:41;93545.84;;;5.76;100.00
21658;BME280;10990;48.174;9.782;2023-12-22T10:27:09;93551.56;;;5.80;100.00
21658;BME280;10990;48.174;9.782;2023-12-22T10:29:35;93541.41;;;5.77;100.00
21658;BME280;10990;48.174;9.782;2023-12-22T10:32:01;93548.47;;;5.76;100.00
21658;BME280;10990;48.174;9.782;2023-12-22T10:34:27;93545.03;;;5.76;100.00
21658;BME280;10990;48.174;9.782;2023-12-22T10:36:53;93544.88;;;5.77;100.00
21658;BME280;10990;48.174;9.782;2023-12-22T10:39:19;93539.28;;;5.80;100.00
21658;BME280;10990;48.174;9.782;2023-12-22T10:41:48;93550.94;;;5.78;100.00
21658;BME280;10990;48.174;9.782;2023-12-22T10:44:14;93533.50;;;5.85;100.00
21658;BME280;10990;48.174;9.782;2023-12-22T10:46:40;93521.53;;;5.82;100.00
21658;BME280;10990;48.174;9.782;2023-12-22T10:49:07;93516.13;;;5.84;100.00
21658;BME280;10990;48.174;9.782;2023-12-22T10:51:33;93519.56;;;5.84;100.00
21658;BME280;10990;48.174;9.782;2023-12-22T10:53:59;93519.06;;;5.89;100.00
21658;BME280;10990;48.174;9.782;2023-12-22T10:56:25;93515.28;;;5.92;100.00
21658;BME280;10990;48.174;9.782;2023-12-22T10:58:53;93508.34;;;5.99;100.00
21658;BME280;10990;48.174;9.782;2023-12-22T11:01:21;93495.78;;;5.94;100.00
21658;BME280;10990;48.174;9.782;2023-12-22T11:03:50;93510.69;;;5.94;100.00
21658;BME280;10990;48.174;9.782;2023-12-22T11:06:17;93507.72;;;5.97;100.00
21658;BME280;10990;48.174;9.782;2023-12-22T11:08:43;93501.47;;;5.98;100.00
21658;BME280;10990;48.174;9.782;2023-12-22T11:11:16;93494.59;;;5.97;100.00
21658;BME280;10990;48.174;9.782;2023-12-22T11:13:43;93493.44;;;5.99;100.00
21658;BME280;10990;48.174;9.782;2023-12-22T11:16:11;93492.16;;;5.95;100.00
21658;BME280;10990;48.174;9.782;2023-12-22T11:18:38;93495.78;;;5.94;100.00
21658;BME280;10990;48.174;9.782;2023-12-22T11:21:06;93485.56;;;5.99;100.00
21658;BME280;10990;48.174;9.782;2023-12-22T11:23:32;93483.41;;;6.03;100.00
21658;BME280;10990;48.174;9.782;2023-12-22T11:25:59;93479.34;;;6.00;100.00
21658;BME280;10990;48.174;9.782;2023-12-22T11:28:26;93473.28;;;6.00;100.00
21658;BME280;10990;48.174;9.782;2023-12-22T11:30:52;93463.75;;;5.99;100.00
21658;BME280;10990;48.174;9.782;2023-12-22T11:33:25;93459.81;;;6.03;100.00
21658;BME280;10990;48.174;9.782;2023-12-22T11:35:52;93444.41;;;6.00;100.00
21658;BME280;10990;48.174;9.782;2023-12-22T11:38:21;93454.72;;;6.01;100.00
21658;BME280;10990;48.174;9.782;2023-12-22T11:40:47;93447.84;;;6.00;100.00
21658;BME280;10990;48.174;9.782;2023-12-22T11:43:14;93448.81;;;5.99;100.00
21658;BME280;10990;48.174;9.782;2023-12-22T11:45:41;93443.13;;;5.96;100.00
21658;BME280;10990;48.174;9.782;2023-12-22T11:48:08;93440.34;;;5.97;100.00
21658;BME280;10990;48.174;9.782;2023-12-22T11:50:37;93432.91;;;6.01;100.00
21658;BME280;10990;48.174;9.782;2023-12-22T11:53:18;93429.50;;;6.00;100.00
21658;BME280;10990;48.174;9.782;2023-12-22T11:56:00;93423.88;;;6.03;100.00
21658;BME280;10990;48.174;9.782;2023-12-22T11:58:36;93416.81;;;6.04;100.00
21658;BME280;10990;48.174;9.782;2023-12-22T12:01:05;93416.09;;;6.10;100.00
21658;BME280;10990;48.174;9.782;2023-12-22T12:03:32;93406.72;;;6.16;100.00
21658;BME280;10990;48.174;9.782;2023-12-22T12:06:31;93403.09;;;6.17;100.00
21658;BME280;10990;48.174;9.782;2023-12-22T12:08:57;93392.63;;;6.17;100.00
21658;BME280;10990;48.174;9.782;2023-12-22T12:11:24;93407.16;;;6.19;100.00
21658;BME280;10990;48.174;9.782;2023-12-22T12:14:14;93398.53;;;6.11;100.00
21658;BME280;10990;48.174;9.782;2023-12-22T12:16:40;93393.50;;;6.09;100.00
21658;BME280;10990;48.174;9.782;2023-12-22T12:19:08;93378.28;;;6.04;100.00
21658;BME280;10990;48.174;9.782;2023-12-22T12:21:36;93380.25;;;6.02;100.00
21658;BME280;10990;48.174;9.782;2023-12-22T12:24:03;93376.66;;;6.03;100.00
21658;BME280;10990;48.174;9.782;2023-12-22T12:26:29;93383.34;;;6.06;100.00
21658;BME280;10990;48.174;9.782;2023-12-22T12:28:56;93380.53;;;6.07;100.00
21658;BME280;10990;48.174;9.782;2023-12-22T12:31:35;93372.88;;;6.06;100.00
21658;BME280;10990;48.174;9.782;2023-12-22T12:34:02;93369.88;;;6.09;100.00
21658;BME280;10990;48.174;9.782;2023-12-22T12:36:28;93359.03;;;6.12;100.00
21658;BME280;10990;48.174;9.782;2023-12-22T12:39:05;93355.03;;;6.16;100.00
21658;BME280;10990;48.174;9.782;2023-12-22T12:41:32;93351.88;;;6.06;100.00
21658;BME280;10990;48.174;9.782;2023-12-22T12:43:58;93347.06;;;6.10;100.00
21658;BME280;10990;48.174;9.782;2023-12-22T12:46:32;93338.84;;;6.13;100.00
21658;BME280;10990;48.174;9.782;2023-12-22T12:49:03;93324.72;;;6.14;100.00
21658;BME280;10990;48.174;9.782;2023-12-22T12:51:28;93323.09;;;6.13;100.00
21658;BME280;10990;48.174;9.782;2023-12-22T12:53:57;93330.44;;;6.17;100.00
21658;BME280;10990;48.174;9.782;2023-12-22T12:56:23;93322.28;;;6.12;100.00
21658;BME280;10990;48.174;9.782;2023-12-22T12:58:48;93326.53;;;6.13;100.00